עמוד ראשי
METAR-TAF:

METAR-TAF

שדות תעופה :

Tapachula, מקסיקו

קו רוחב: 14-47N, קו אורך: 092-23W, גובה: 29מטר

תצפית מזג אוויר נוכחית

הדו"ח נערך לפני 1 שעות ו 14דקות, בשעה 20:41 UTC
רוח 4קשר מכיוון מערב/דרום-מערב
טמפרטורת 32 צלסיוס
לחות 71%
לחץ 1011 hPa
ראות: 12.9קילומטר
מעט עננים בגובה 3000רגל
עננים פזורים בגובה 18000רגל

METAR: MMTP 252041Z 25004KT 8SM FEW030 SCT180 32/26 A2985 RMK SLP132 57020 913 8/101 HZY TCU NE E

זמן: 16:55 (21:55 UTC)

תחזית

הדו"ח נערך לפני 4 שעות ו 12דקות, בשעה 17:43 UTC
תחזית בתוקף מ 25 ב 18 UTC עד 26 ב 18 UTC
רוח 10קשר מכיוון מערב/דרום-מערב
ראות: 10קילומטר
עננים פזורים בגובה 3000רגל
יעשה מ
25 ב 21 UTC עד 25 ב 22 UTC
עננים בינוניים בגובה 3000רגל
זמנית מ -
25 ב 22 UTC עד 26 ב 02 UTC
ראות: 9.7קילומטר
גשם קל
מ 26 ב 0300UTC
רוח קשר מכיוון צפון
ראות: 10קילומטר
עננים פזורים בגובה 3000רגל
יעשה מ
26 ב 17 UTC עד 26 ב 18 UTC
רוח 8קשר מכיוון מערב/דרום-מערב

TAF: MMTP 251743Z 2518/2618 24010KT P6SM SCT030 BECMG 2521/2522 BKN030 TEMPO 2522/2602 6SM -RA FM260300 00000KT P6SM SCT030 BECMG 2617/2618 24008KT

תצפיות ותחזיות מזג אוויר לגבי יותר מ- 4,000 שדות תעופה ברחבי העולם. דוחות METAR ו- TAF.

התחנות הזמינות מסומנות בנקודות צהובות ואדומות על גבי המפה.

העבר את העכבר לנקודה הצבעונית על מנת לראות את שם התחנה.

לאחר מכן, לחץ כדי לראות את תוכן ואת תחזיות מזג האוויר.

כדי לשנות את המפה: לחץ על הכפתורים הירוקים עם הפלוס השחור כדי להתקרב; על הכפתור הירוק עם המקף כדי להתרחק; או בחיצים הירוקים למפות סמוכות.


METAR-TAF: